Time;durP1;ratioP1;P1;durP2;ratioP2;P2;SDS_P1;SDS_P2;PMS_P1;PMS_P2;Temp;Humidity;BMP_temperature;BMP_pressure;BME280_temperature;BME280_humidity;BME280_pressure;Samples;Min_cycle;Max_cycle;Signal;HPM_P1;HPM_P2
2022/09/19 00:01:22;;;;;;;1.10;0.93;;;;;;;9.46;86.54;98309.81;7388721;19;20046;-72
2022/09/19 00:03:55;;;;;;;1.10;1.00;;;;;;;9.44;86.84;98311.75;7389780;19;20029;-70
2022/09/19 00:06:23;;;;;;;1.00;0.80;;;;;;;9.40;86.63;98320.94;7389930;19;20015;-72
2022/09/19 00:08:50;;;;;;;2.25;0.90;;;;;;;9.32;86.48;98313.81;7390565;19;20018;-70
2022/09/19 00:11:19;;;;;;;3.97;0.80;;;;;;;9.32;86.14;98321.72;7390102;19;20011;-72
2022/09/19 00:13:48;;;;;;;2.45;0.77;;;;;;;9.10;86.01;98317.66;7390982;19;20592;-72
2022/09/19 00:16:26;;;;;;;4.38;0.90;;;;;;;9.00;86.28;98325.66;7388487;19;20022;-71
2022/09/19 00:18:55;;;;;;;0.82;0.60;;;;;;;8.96;86.81;98321.66;7392630;19;20514;-70
2022/09/19 00:21:49;;;;;;;2.08;0.52;;;;;;;8.70;86.13;98329.41;7390591;19;20021;-71
2022/09/19 00:27:07;;;;;;;0.52;0.52;;;;;;;8.53;86.33;98317.81;7388608;19;20020;-71
2022/09/19 00:29:35;;;;;;;1.25;0.52;;;;;;;8.52;86.52;98326.69;7389273;19;20050;-72
2022/09/19 00:32:07;;;;;;;0.63;0.50;;;;;;;8.50;86.41;98328.63;7387055;19;20039;-71
2022/09/19 00:34:35;;;;;;;1.30;0.50;;;;;;;8.50;86.69;98333.06;7390352;19;20648;-71
2022/09/19 00:37:02;;;;;;;0.50;0.50;;;;;;;8.33;86.29;98331.97;7385832;19;20033;-71
2022/09/19 00:39:28;;;;;;;2.22;0.57;;;;;;;8.33;86.60;98331.97;7389877;19;20374;-71
2022/09/19 00:41:55;;;;;;;0.40;0.25;;;;;;;8.16;86.37;98330.88;7390974;19;20006;-71
2022/09/19 00:44:22;;;;;;;1.48;0.43;;;;;;;8.12;86.07;98337.44;7391044;19;20120;-70
2022/09/19 00:46:51;;;;;;;3.22;0.30;;;;;;;8.08;86.06;98342.16;7385844;19;20098;-71
2022/09/19 00:49:19;;;;;;;0.30;0.30;;;;;;;8.06;85.87;98348.53;7388793;19;20018;-71
2022/09/19 00:51:49;;;;;;;0.30;0.30;;;;;;;8.08;85.89;98351.84;7386033;19;20022;-71
2022/09/19 00:54:20;;;;;;;1.10;0.40;;;;;;;8.02;86.20;98350.59;7386320;19;20017;-70
2022/09/19 00:56:52;;;;;;;0.47;0.40;;;;;;;8.04;85.99;98355.75;7388265;19;20006;-71
2022/09/19 00:59:21;;;;;;;0.30;0.30;;;;;;;8.01;86.70;98361.31;7390132;19;20529;-70
2022/09/19 01:01:48;;;;;;;1.75;0.38;;;;;;;8.02;86.67;98360.31;7388952;19;20018;-71
2022/09/19 01:04:18;;;;;;;0.40;0.40;;;;;;;8.02;86.34;98361.16;7390007;19;20361;-70
2022/09/19 01:07:11;;;;;;;0.40;0.40;;;;;;;7.96;86.76;98366.97;7385906;19;20015;-71
2022/09/19 01:09:51;;;;;;;1.38;0.40;;;;;;;7.89;86.55;98366.69;7384735;19;20682;-71
2022/09/19 01:12:34;;;;;;;0.40;0.40;;;;;;;7.90;87.19;98364.91;7385862;19;20022;-71
2022/09/19 01:15:09;;;;;;;2.28;0.85;;;;;;;7.85;87.05;98364.50;7390126;19;20355;-71
2022/09/19 01:17:46;;;;;;;0.30;0.30;;;;;;;7.80;87.10;98364.91;7384237;19;20017;-71
2022/09/19 01:20:31;;;;;;;3.00;0.57;;;;;;;7.78;86.97;98358.94;7390705;19;20014;-71
2022/09/19 01:23:19;;;;;;;0.32;0.32;;;;;;;7.75;87.19;98364.50;7389044;19;20055;-71
2022/09/19 01:26:01;;;;;;;0.82;0.60;;;;;;;7.70;87.26;98364.06;7388145;19;20421;-70
2022/09/19 01:28:29;;;;;;;0.43;0.43;;;;;;;7.68;87.18;98355.47;7386022;19;20026;-70
2022/09/19 01:31:19;;;;;;;0.52;0.52;;;;;;;7.69;87.27;98357.97;7386588;19;20538;-70
2022/09/19 01:34:06;;;;;;;1.20;0.85;;;;;;;7.74;87.54;98368.09;7389101;19;20014;-70
2022/09/19 01:36:37;;;;;;;0.98;0.90;;;;;;;7.65;87.01;98374.19;7386074;19;20015;-70
2022/09/19 01:39:07;;;;;;;2.08;1.02;;;;;;;7.74;87.60;98377.78;7384066;19;20021;-71
2022/09/19 01:41:53;;;;;;;2.00;0.98;;;;;;;7.76;87.60;98376.66;7384323;19;20019;-71
2022/09/19 01:44:23;;;;;;;0.70;0.70;;;;;;;7.70;87.15;98375.44;7384918;19;20073;-69
2022/09/19 01:47:17;;;;;;;1.30;1.20;;;;;;;7.69;87.29;98375.59;7385334;19;20018;-70
2022/09/19 01:49:52;;;;;;;1.30;1.20;;;;;;;7.69;86.99;98375.59;7385863;19;20486;-71
2022/09/19 01:52:36;;;;;;;1.77;1.27;;;;;;;7.71;87.14;98378.88;7388820;19;20576;-71
2022/09/19 01:55:33;;;;;;;2.75;1.42;;;;;;;7.63;87.20;98394.53;7386091;19;20018;-69
2022/09/19 01:58:06;;;;;;;2.75;1.58;;;;;;;7.62;87.27;98385.00;7383469;19;20020;-71
2022/09/19 02:00:38;;;;;;;3.53;1.90;;;;;;;7.58;86.97;98386.22;7386781;19;20038;-70
2022/09/19 02:03:29;;;;;;;1.20;1.10;;;;;;;7.58;86.86;98378.31;7387232;19;20014;-71
2022/09/19 02:06:00;;;;;;;0.77;0.75;;;;;;;7.46;87.04;98381.06;7386566;19;20015;-71
2022/09/19 02:09:08;;;;;;;2.35;1.00;;;;;;;7.51;87.30;98385.13;7387327;19;20482;-71
2022/09/19 02:11:44;;;;;;;0.75;0.75;;;;;;;7.53;87.25;98381.38;7385727;19;20010;-71
2022/09/19 02:14:18;;;;;;;0.50;0.50;;;;;;;7.54;87.53;98387.47;7383520;19;20019;-70
2022/09/19 02:17:02;;;;;;;0.70;0.70;;;;;;;7.48;87.34;98389.69;7378639;19;20492;-71
2022/09/19 02:19:43;;;;;;;1.13;0.68;;;;;;;7.52;87.79;98390.22;7387457;19;20026;-70
2022/09/19 02:22:26;;;;;;;0.73;0.73;;;;;;;7.61;87.96;98397.31;7386768;19;20014;-71
2022/09/19 02:24:58;;;;;;;1.98;0.70;;;;;;;7.66;88.00;98396.91;7388524;19;20022;-71
2022/09/19 02:27:34;;;;;;;5.75;0.70;;;;;;;7.67;87.76;98393.31;7374558;19;20159;-71
2022/09/19 02:30:05;;;;;;;3.25;1.20;;;;;;;7.78;87.65;98392.34;7383294;19;20014;-71
2022/09/19 02:32:36;;;;;;;1.63;0.73;;;;;;;7.80;87.86;98393.88;7383751;19;20022;-70
2022/09/19 02:35:04;;;;;;;1.20;1.00;;;;;;;7.85;88.13;98394.28;7385073;19;20050;-71
2022/09/19 02:37:39;;;;;;;0.90;0.70;;;;;;;7.86;88.12;98398.59;7382290;19;20014;-71
2022/09/19 02:40:13;;;;;;;0.88;0.85;;;;;;;7.95;88.10;98398.72;7385117;19;20047;-71
2022/09/19 02:42:56;;;;;;;1.15;0.95;;;;;;;7.98;88.07;98401.94;7383016;19;20042;-71
2022/09/19 02:45:28;;;;;;;1.08;0.90;;;;;;;8.00;87.89;98391.25;7381585;19;20014;-71
2022/09/19 02:48:05;;;;;;;1.40;0.80;;;;;;;7.93;87.86;98395.41;7383335;19;20096;-72
2022/09/19 02:50:59;;;;;;;1.27;0.88;;;;;;;7.87;87.48;98392.38;7380883;19;20018;-71
2022/09/19 02:53:33;;;;;;;3.42;1.35;;;;;;;7.91;87.39;98393.72;7386301;19;20010;-71
2022/09/19 02:56:03;;;;;;;2.95;0.93;;;;;;;7.92;87.75;98402.47;7384633;19;20490;-72
2022/09/19 02:58:35;;;;;;;2.38;0.88;;;;;;;8.00;87.98;98399.97;7382457;19;20022;-71
2022/09/19 03:01:15;;;;;;;1.38;0.90;;;;;;;8.07;87.93;98397.63;7383369;19;20027;-71
2022/09/19 03:04:14;;;;;;;1.25;0.90;;;;;;;8.09;88.02;98396.50;7382962;19;20011;-71
2022/09/19 03:06:52;;;;;;;1.67;0.88;;;;;;;8.11;87.62;98399.84;7380440;19;20022;-69
2022/09/19 03:09:22;;;;;;;2.33;0.95;;;;;;;8.11;87.63;98402.47;7385964;19;20554;-70
2022/09/19 03:11:57;;;;;;;1.73;0.90;;;;;;;8.16;87.66;98409.94;7385007;19;20018;-71
2022/09/19 03:14:24;;;;;;;6.70;1.05;;;;;;;8.23;87.73;98415.50;7380430;19;20686;-71
2022/09/19 03:16:56;;;;;;;1.27;1.13;;;;;;;8.23;87.52;98410.22;7385089;19;20410;-72
2022/09/19 03:19:24;;;;;;;2.55;1.30;;;;;;;8.18;87.47;98413.28;7383637;19;20366;-71
2022/09/19 03:21:53;;;;;;;5.43;1.60;;;;;;;8.06;87.52;98414.41;7383975;19;20027;-69
2022/09/19 03:24:21;;;;;;;7.25;1.48;;;;;;;8.06;87.50;98417.03;7382037;19;20508;-70
2022/09/19 03:26:49;;;;;;;3.03;1.23;;;;;;;8.08;87.12;98423.84;7384201;19;20070;-72
2022/09/19 03:29:16;;;;;;;3.15;1.00;;;;;;;8.07;86.71;98418.69;7385485;19;20497;-69
2022/09/19 03:31:55;;;;;;;2.90;1.00;;;;;;;8.08;86.64;98423.00;7385879;19;20033;-71
2022/09/19 03:34:22;;;;;;;5.28;1.25;;;;;;;8.08;85.98;98428.25;7382036;19;20010;-72
2022/09/19 03:36:50;;;;;;;3.45;1.05;;;;;;;8.17;86.48;98430.06;7380724;19;20019;-71
2022/09/19 03:39:26;;;;;;;5.00;1.20;;;;;;;8.27;86.64;98430.91;7382813;19;20014;-71
2022/09/19 03:41:54;;;;;;;1.88;1.00;;;;;;;8.21;86.05;98420.91;7384663;19;20010;-71
2022/09/19 03:44:21;;;;;;;6.38;1.08;;;;;;;8.22;86.26;98419.13;7375774;19;20579;-71
2022/09/19 03:46:48;;;;;;;2.97;0.95;;;;;;;8.18;85.84;98417.72;7380618;19;20018;-70
2022/09/19 03:49:16;;;;;;;2.50;1.58;;;;;;;8.26;85.60;98423.13;7382759;19;20032;-71
2022/09/19 03:51:46;;;;;;;3.70;0.98;;;;;;;8.23;85.55;98433.94;7378217;19;20095;-70
2022/09/19 03:54:14;;;;;;;6.10;1.20;;;;;;;8.32;85.76;98433.97;7383738;19;20014;-71
2022/09/19 03:56:43;;;;;;;2.83;1.02;;;;;;;8.21;84.74;98436.72;7383142;19;20015;-70
2022/09/19 03:59:11;;;;;;;6.35;0.90;;;;;;;8.31;85.33;98437.53;7388938;19;20018;-71
2022/09/19 04:01:40;;;;;;;7.32;0.85;;;;;;;8.36;85.08;98437.97;7389084;19;20097;-69
2022/09/19 04:04:07;;;;;;;5.25;0.90;;;;;;;8.37;85.22;98449.34;7389930;19;20026;-71
2022/09/19 04:06:40;;;;;;;5.32;0.90;;;;;;;8.40;85.10;98448.25;7387739;19;20026;-69
2022/09/19 04:09:08;;;;;;;2.72;1.00;;;;;;;8.43;85.09;98453.28;7387412;19;20015;-71
2022/09/19 04:11:35;;;;;;;11.30;0.88;;;;;;;8.37;84.91;98438.78;7389718;19;20010;-70
2022/09/19 04:14:03;;;;;;;9.50;0.90;;;;;;;8.46;85.03;98443.25;7386065;19;20817;-71
2022/09/19 04:16:30;;;;;;;3.53;1.15;;;;;;;8.50;85.06;98447.28;7386813;19;20019;-71
2022/09/19 04:18:58;;;;;;;6.32;1.38;;;;;;;8.48;84.93;98448.41;7392675;19;20379;-71
2022/09/19 04:21:44;;;;;;;3.20;1.23;;;;;;;8.48;84.85;98436.06;7391669;19;20057;-71
2022/09/19 04:24:29;;;;;;;2.75;0.85;;;;;;;8.54;85.21;98443.38;7390021;19;20441;-71
2022/09/19 04:27:06;;;;;;;3.63;0.90;;;;;;;8.50;84.38;98459.63;7388951;19;20022;-70
2022/09/19 04:29:35;;;;;;;2.45;0.70;;;;;;;8.51;84.23;98459.50;7389877;19;20597;-69
2022/09/19 04:32:02;;;;;;;6.13;1.00;;;;;;;8.42;83.78;98462.97;7383347;19;20019;-68
2022/09/19 04:34:29;;;;;;;6.85;1.10;;;;;;;8.59;84.22;98471.16;7391549;19;20010;-71
2022/09/19 04:36:59;;;;;;;5.10;0.90;;;;;;;8.62;84.50;98479.59;7390357;19;20491;-70
2022/09/19 04:39:27;;;;;;;7.85;1.52;;;;;;;8.66;84.54;98480.16;7384089;19;20082;-70
2022/09/19 04:41:54;;;;;;;6.60;1.20;;;;;;;8.66;84.31;98478.38;7386017;19;20021;-71
2022/09/19 04:44:28;;;;;;;6.00;1.00;;;;;;;8.72;84.26;98469.88;7391605;19;20019;-70
2022/09/19 04:47:22;;;;;;;7.10;1.58;;;;;;;8.68;84.11;98468.47;7384937;19;20377;-70
2022/09/19 04:49:49;;;;;;;6.07;1.52;;;;;;;8.69;84.76;98461.41;7388050;19;20018;-70
2022/09/19 04:52:15;;;;;;;5.88;1.17;;;;;;;8.73;84.37;98465.44;7388519;19;20011;-71
2022/09/19 04:54:45;;;;;;;4.40;1.08;;;;;;;8.77;84.19;98466.81;7389706;19;20014;-71
2022/09/19 04:57:12;;;;;;;6.53;1.23;;;;;;;8.75;83.89;98474.88;7382894;19;20043;-69
2022/09/19 04:59:41;;;;;;;3.60;0.82;;;;;;;8.83;83.73;98474.16;7381889;19;20018;-69
2022/09/19 05:02:08;;;;;;;6.38;1.17;;;;;;;8.78;83.35;98471.94;7379329;19;20023;-69
2022/09/19 05:04:35;;;;;;;5.25;1.13;;;;;;;8.83;83.81;98476.81;7382612;19;20025;-70
2022/09/19 05:07:03;;;;;;;4.88;0.90;;;;;;;8.87;83.56;98477.34;7383621;19;20055;-70
2022/09/19 05:09:31;;;;;;;7.95;1.70;;;;;;;8.89;83.99;98486.78;7382083;19;20029;-70
2022/09/19 05:12:09;;;;;;;7.05;1.15;;;;;;;8.93;83.96;98489.97;7381126;19;20410;-70
2022/09/19 05:14:46;;;;;;;5.10;1.10;;;;;;;8.87;83.93;98494.00;7379420;19;20368;-70
2022/09/19 05:17:14;;;;;;;10.15;1.30;;;;;;;8.96;83.32;98494.97;7379386;19;20074;-70
2022/09/19 05:19:43;;;;;;;5.53;1.52;;;;;;;8.83;83.02;98503.19;7381678;19;20030;-70
2022/09/19 05:22:10;;;;;;;9.60;1.45;;;;;;;8.91;83.40;98497.19;7380716;19;20038;-70
2022/09/19 05:24:37;;;;;;;7.13;1.08;;;;;;;8.96;84.13;98505.53;7383061;19;20018;-70
2022/09/19 05:27:04;;;;;;;6.75;1.48;;;;;;;9.00;82.94;98509.53;7381017;19;20022;-70
2022/09/19 05:29:36;;;;;;;9.65;1.45;;;;;;;9.05;83.00;98509.94;7387296;19;20776;-70
2022/09/19 05:32:04;;;;;;;3.83;1.20;;;;;;;9.11;83.32;98512.00;7382606;19;20045;-71
2022/09/19 05:34:45;;;;;;;;;;;;;;;9.13;83.59;98520.59;7388353;19;20030;-70
2022/09/19 05:37:41;;;;;;;8.60;1.58;;;;;;;9.09;82.39;98513.97;7381354;19;20343;-70
2022/09/19 05:40:27;;;;;;;9.45;1.52;;;;;;;9.16;81.39;98522.97;7390070;19;20013;-70
2022/09/19 05:43:03;;;;;;;6.68;2.13;;;;;;;9.20;82.59;98526.97;7387861;19;20025;-71
2022/09/19 05:45:31;;;;;;;8.55;1.65;;;;;;;9.24;82.34;98527.50;7388382;19;20044;-70
2022/09/19 05:47:59;;;;;;;5.57;1.17;;;;;;;9.25;80.57;98531.84;7384520;19;20074;-70
2022/09/19 05:50:26;;;;;;;4.40;1.75;;;;;;;9.33;79.88;98529.31;7385984;19;20366;-70
2022/09/19 05:55:38;;;;;;;5.13;1.80;;;;;;;9.47;81.39;98532.47;7388005;19;20026;-70
2022/09/19 05:58:24;;;;;;;5.72;1.48;;;;;;;9.55;81.92;98543.13;7386876;19;20052;-70
2022/09/19 06:00:51;;;;;;;7.15;1.48;;;;;;;9.56;81.84;98544.81;7389154;19;20021;-70
2022/09/19 06:03:20;;;;;;;11.18;1.40;;;;;;;9.66;80.73;98533.22;7389048;19;20003;-71
2022/09/19 06:05:50;;;;;;;6.50;1.35;;;;;;;9.79;80.34;98543.44;7385179;19;20048;-70
2022/09/19 06:08:19;;;;;;;11.02;1.73;;;;;;;9.76;80.28;98540.25;7386038;19;20035;-70
2022/09/19 06:10:47;;;;;;;4.00;1.27;;;;;;;9.84;80.65;98548.28;7385717;19;20033;-71
2022/09/19 06:13:18;;;;;;;4.53;1.90;;;;;;;9.75;80.35;98549.19;7387300;19;20194;-70
2022/09/19 06:15:45;;;;;;;5.68;1.40;;;;;;;9.95;79.54;98556.00;7388592;19;20015;-70
2022/09/19 06:18:22;;;;;;;12.65;1.60;;;;;;;9.99;79.75;98556.56;7384980;19;20017;-71
2022/09/19 06:20:56;;;;;;;7.47;1.40;;;;;;;9.99;79.61;98557.38;7382780;19;20031;-71
2022/09/19 06:23:29;;;;;;;9.40;1.50;;;;;;;10.08;80.40;98560.94;7386891;19;20033;-71
2022/09/19 06:25:56;;;;;;;8.23;1.65;;;;;;;10.04;79.35;98557.78;7386275;19;20081;-71
2022/09/19 06:28:23;;;;;;;4.22;1.08;;;;;;;10.21;79.85;98563.25;7384104;19;20018;-71
2022/09/19 06:31:01;;;;;;;6.72;1.42;;;;;;;10.26;79.24;98572.38;7385916;19;20094;-70
2022/09/19 06:33:42;;;;;;;15.60;2.17;;;;;;;10.36;78.60;98571.53;7388058;19;20010;-71
2022/09/19 06:36:17;;;;;;;7.72;1.13;;;;;;;10.30;77.14;98568.50;7386500;19;20015;-71
2022/09/19 06:38:44;;;;;;;5.40;1.60;;;;;;;10.46;77.55;98574.94;7384733;19;20019;-71
2022/09/19 06:41:35;;;;;;;10.77;1.45;;;;;;;10.55;78.79;98585.44;7386082;19;20049;-71
2022/09/19 06:44:14;;;;;;;4.85;1.45;;;;;;;10.37;77.64;98579.31;7384410;19;20006;-71
2022/09/19 06:47:02;;;;;;;10.55;1.73;;;;;;;10.59;77.65;98587.81;7384717;19;20090;-70
2022/09/19 06:50:02;;;;;;;4.65;1.25;;;;;;;10.64;77.74;98585.56;7386316;19;20500;-71
2022/09/19 06:52:37;;;;;;;8.82;1.85;;;;;;;10.38;76.84;98586.28;7385022;19;20504;-71
2022/09/19 06:55:06;;;;;;;6.90;1.60;;;;;;;10.44;76.75;98587.50;7385541;19;20016;-71
2022/09/19 06:57:33;;;;;;;7.80;1.30;;;;;;;10.20;77.33;98598.59;7379784;19;20026;-71
2022/09/19 07:00:00;;;;;;;7.28;1.48;;;;;;;10.28;77.05;98596.91;7381937;19;20474;-71
2022/09/19 07:02:29;;;;;;;7.80;1.95;;;;;;;10.34;75.87;98600.75;7380476;19;20014;-71
2022/09/19 07:04:56;;;;;;;5.65;1.70;;;;;;;10.39;77.11;98597.69;7381731;19;20006;-71
2022/09/19 07:07:51;;;;;;;11.65;1.90;;;;;;;10.28;78.14;98604.00;7380521;19;20021;-71
2022/09/19 07:10:19;;;;;;;5.40;1.17;;;;;;;10.53;77.17;98605.94;7380787;19;20048;-71
2022/09/19 07:12:51;;;;;;;9.18;2.65;;;;;;;10.45;77.61;98612.94;7378460;19;20006;-71
2022/09/19 07:15:23;;;;;;;9.32;1.77;;;;;;;10.37;76.66;98611.03;7381619;19;20021;-71
2022/09/19 07:17:56;;;;;;;5.63;1.48;;;;;;;10.47;77.44;98617.09;7376935;19;20010;-71
2022/09/19 07:20:24;;;;;;;4.82;1.55;;;;;;;10.63;77.49;98608.50;7380661;19;20011;-71
2022/09/19 07:23:00;;;;;;;9.57;2.15;;;;;;;10.69;77.00;98620.28;7384102;19;20014;-71
2022/09/19 07:25:46;;;;;;;9.00;1.52;;;;;;;10.87;76.75;98622.97;7387997;19;20017;-71
2022/09/19 07:28:15;;;;;;;10.73;2.05;;;;;;;10.94;76.43;98613.44;7382846;19;20362;-71
2022/09/19 07:30:44;;;;;;;12.48;1.95;;;;;;;11.03;74.55;98620.44;7384895;19;20035;-71
2022/09/19 07:33:23;;;;;;;8.85;1.58;;;;;;;11.05;74.56;98621.13;7390828;19;20089;-71
2022/09/19 07:35:53;;;;;;;9.15;2.15;;;;;;;11.06;74.92;98624.59;7390778;19;20021;-71
2022/09/19 07:38:21;;;;;;;6.20;1.23;;;;;;;10.99;74.44;98625.22;7393593;19;20014;-71
2022/09/19 07:41:17;;;;;;;5.97;1.63;;;;;;;11.01;76.26;98622.44;7393967;19;20108;-71
2022/09/19 07:44:10;;;;;;;11.68;1.80;;;;;;;11.21;75.78;98633.69;7390482;19;20011;-71
2022/09/19 07:47:26;;;;;;;;;;;;;;;11.20;73.90;98634.66;7391071;19;20043;-70
2022/09/19 07:50:05;;;;;;;13.80;1.58;;;;;;;11.33;74.44;98644.88;7389699;19;19992;-71
2022/09/19 07:52:34;;;;;;;6.95;1.45;;;;;;;11.30;74.85;98646.00;7389366;19;20021;-71
2022/09/19 07:55:01;;;;;;;6.57;1.65;;;;;;;11.57;73.58;98658.28;7393385;19;20014;-71
2022/09/19 07:57:30;;;;;;;9.10;1.80;;;;;;;11.38;73.51;98656.66;7388307;19;20080;-70
2022/09/19 07:59:57;;;;;;;11.18;1.75;;;;;;;11.36;73.30;98657.81;7392333;19;20010;-71
2022/09/19 08:02:24;;;;;;;12.25;1.55;;;;;;;11.45;73.15;98664.00;7389382;19;20646;-71
2022/09/19 08:04:52;;;;;;;7.97;1.50;;;;;;;11.71;73.01;98656.88;7391535;19;20021;-71
2022/09/19 08:07:20;;;;;;;10.35;1.85;;;;;;;11.70;73.40;98668.47;7386481;19;20018;-71
2022/09/19 08:09:49;;;;;;;15.23;2.15;;;;;;;11.60;73.42;98675.69;7392562;19;20011;-71
2022/09/19 08:12:30;;;;;;;15.32;1.95;;;;;;;11.64;74.14;98674.41;7389362;19;20019;-71
2022/09/19 08:15:07;;;;;;;11.13;1.90;;;;;;;11.63;72.54;98685.97;7392158;19;20050;-70
2022/09/19 08:17:36;;;;;;;8.02;1.40;;;;;;;11.57;73.91;98682.13;7388387;19;20033;-70
2022/09/19 08:20:03;;;;;;;8.05;1.60;;;;;;;11.73;73.49;98683.25;7390403;19;20021;-70
2022/09/19 08:22:34;;;;;;;6.65;1.80;;;;;;;11.38;75.07;98682.34;7387371;19;20015;-72
2022/09/19 08:25:06;;;;;;;16.08;1.98;;;;;;;11.60;73.68;98684.47;7390711;19;20477;-71
2022/09/19 08:27:33;;;;;;;11.07;2.25;;;;;;;11.45;73.18;98686.00;7387544;19;20440;-70
2022/09/19 08:30:00;;;;;;;14.75;2.15;;;;;;;11.91;73.17;98688.53;7390685;19;20770;-71
2022/09/19 08:32:28;;;;;;;5.78;1.20;;;;;;;11.99;72.62;98691.22;7389745;19;20034;-71
2022/09/19 08:34:55;;;;;;;10.38;1.52;;;;;;;12.07;72.41;98688.63;7390697;19;20074;-71
2022/09/19 08:37:21;;;;;;;8.95;1.75;;;;;;;12.36;69.10;98688.25;7385587;19;20035;-71
2022/09/19 08:43:24;;;;;;;10.38;1.85;;;;;;;12.53;69.52;98699.75;7387027;19;20015;-70
2022/09/19 08:45:51;;;;;;;6.03;1.23;;;;;;;12.59;70.02;98701.78;7388923;19;20090;-71
2022/09/19 08:48:25;;;;;;;8.38;2.45;;;;;;;12.68;70.73;98710.59;7390570;19;20014;-72
2022/09/19 08:50:57;;;;;;;14.15;1.77;;;;;;;12.62;70.72;98706.78;7391832;19;20084;-71
2022/09/19 08:53:28;;;;;;;6.72;1.45;;;;;;;12.79;68.93;98709.47;7388632;19;20006;-71
2022/09/19 08:55:59;;;;;;;10.48;2.13;;;;;;;12.82;68.88;98710.00;7388847;19;20018;-70
2022/09/19 08:58:27;;;;;;;6.78;1.38;;;;;;;12.93;68.66;98703.56;7385215;19;20078;-71
2022/09/19 09:01:14;;;;;;;6.60;1.50;;;;;;;12.99;68.30;98712.69;7384044;19;20558;-71
2022/09/19 09:04:31;;;;;;;11.02;1.77;;;;;;;12.50;68.99;98719.50;7387476;19;20033;-70
2022/09/19 09:07:34;;;;;;;6.55;1.65;;;;;;;12.52;67.21;98714.03;7381551;19;20378;-71
2022/09/19 09:10:45;;;;;;;7.93;1.70;;;;;;;12.50;69.36;98722.16;7387747;19;20017;-71
2022/09/19 09:13:37;;;;;;;5.18;1.27;;;;;;;12.60;70.12;98719.38;7385340;19;20010;-71
2022/09/19 09:16:59;;;;;;;8.60;1.38;;;;;;;12.56;69.89;98728.66;7387618;19;20022;-71
2022/09/19 09:19:56;;;;;;;3.63;1.35;;;;;;;12.49;70.63;98727.63;7390044;19;20018;-71
2022/09/19 09:22:32;;;;;;;9.32;2.00;;;;;;;12.62;69.74;98728.00;7389604;19;20050;-71
2022/09/19 09:25:22;;;;;;;10.37;1.60;;;;;;;12.68;66.34;98722.06;7388910;19;20110;-71
2022/09/19 09:27:58;;;;;;;9.25;2.05;;;;;;;13.11;67.22;98722.00;7384929;19;20022;-71
2022/09/19 09:30:38;;;;;;;9.95;2.22;;;;;;;13.08;65.32;98724.97;7386186;19;20021;-70
2022/09/19 09:33:27;;;;;;;10.77;1.40;;;;;;;13.33;65.61;98721.41;7385956;19;20013;-71
2022/09/19 09:36:02;;;;;;;6.20;1.60;;;;;;;13.17;66.10;98722.19;7389068;19;20018;-71
2022/09/19 09:38:52;;;;;;;4.90;1.77;;;;;;;13.53;65.30;98724.59;7383640;19;20367;-70
2022/09/19 09:41:47;;;;;;;6.30;1.70;;;;;;;13.54;64.66;98731.56;7388300;19;20035;-71
2022/09/19 09:44:44;;;;;;;3.67;1.23;;;;;;;14.01;63.09;98730.03;7386282;19;20486;-71
2022/09/19 09:47:21;;;;;;;6.15;1.63;;;;;;;13.35;63.93;98739.84;7384806;19;20018;-71
2022/09/19 09:49:52;;;;;;;6.43;1.70;;;;;;;13.27;64.07;98738.03;7387866;19;20320;-71
2022/09/19 09:52:29;;;;;;;7.95;1.63;;;;;;;13.50;64.73;98740.84;7386480;19;20014;-71
2022/09/19 09:58:13;;;;;;;5.38;1.40;;;;;;;13.87;64.54;98731.53;7384193;19;20021;-71
2022/09/19 10:03:49;;;;;;;7.35;1.63;;;;;;;15.08;62.41;98719.81;7386898;19;20014;-71
2022/09/19 10:07:12;;;;;;;7.63;1.38;;;;;;;14.73;59.16;98713.19;7385327;19;20385;-71
2022/09/19 10:09:45;;;;;;;4.40;1.40;;;;;;;15.24;60.40;98717.03;7388152;19;20700;-71
2022/09/19 10:12:23;;;;;;;5.60;1.27;;;;;;;15.35;60.57;98713.16;7386924;19;20018;-71
2022/09/19 10:15:17;;;;;;;9.27;1.73;;;;;;;15.30;58.37;98711.00;7386519;19;20010;-72
2022/09/19 10:17:53;;;;;;;4.53;1.45;;;;;;;14.53;61.98;98718.91;7384453;19;20014;-71
2022/09/19 10:20:29;;;;;;;6.68;1.20;;;;;;;14.49;61.95;98718.41;7386027;19;20053;-71
2022/09/19 10:22:58;;;;;;;5.03;1.85;;;;;;;14.02;64.49;98726.38;7386204;19;20019;-71
2022/09/19 10:25:27;;;;;;;9.52;1.63;;;;;;;13.73;65.92;98724.25;7386314;19;20019;-71
2022/09/19 10:27:56;;;;;;;5.30;1.38;;;;;;;13.48;66.44;98724.25;7384484;19;20074;-71
2022/09/19 10:30:37;;;;;;;5.35;1.40;;;;;;;14.23;62.76;98729.31;7385576;19;20038;-71
2022/09/19 10:33:44;;;;;;;5.70;1.92;;;;;;;14.52;61.89;98721.75;7382978;19;20014;-70
2022/09/19 10:36:21;;;;;;;5.10;1.27;;;;;;;14.63;62.23;98714.22;7383700;19;20014;-70
2022/09/19 10:38:53;;;;;;;11.30;1.63;;;;;;;14.45;63.69;98722.41;7385775;19;20102;-71
2022/09/19 10:41:23;;;;;;;5.07;1.02;;;;;;;14.31;62.30;98731.13;7388614;19;20022;-71
2022/09/19 10:43:57;;;;;;;4.95;1.50;;;;;;;14.78;62.95;98717.00;7387556;19;20011;-71
2022/09/19 10:46:36;;;;;;;6.07;1.30;;;;;;;15.14;61.01;98713.81;7385124;19;20017;-72
2022/09/19 10:49:45;;;;;;;7.65;2.20;;;;;;;15.24;63.21;98716.22;7385745;19;20044;-72
2022/09/19 10:52:30;;;;;;;4.68;1.45;;;;;;;15.75;60.49;98717.34;7385096;19;20010;-71
2022/09/19 10:55:22;;;;;;;6.10;1.35;;;;;;;15.61;61.22;98706.59;7384579;19;20017;-71
2022/09/19 10:58:01;;;;;;;8.77;1.80;;;;;;;15.78;61.32;98708.97;7384420;19;20085;-72
2022/09/19 11:00:55;;;;;;;5.50;1.48;;;;;;;15.38;61.56;98712.78;7385568;19;20025;-71
2022/09/19 11:03:30;;;;;;;6.35;1.60;;;;;;;15.01;62.64;98705.53;7386104;19;20090;-71
2022/09/19 11:06:10;;;;;;;4.53;1.20;;;;;;;14.93;62.35;98715.25;7384313;19;20101;-72
2022/09/19 11:08:45;;;;;;;3.70;1.38;;;;;;;14.92;63.36;98713.56;7387763;19;20703;-71
2022/09/19 11:11:25;;;;;;;7.50;1.60;;;;;;;15.36;63.79;98715.63;7391349;19;20019;-71
2022/09/19 11:14:16;;;;;;;7.20;1.08;;;;;;;15.19;61.88;98715.91;7394076;19;20092;-71
2022/09/19 11:17:06;;;;;;;6.30;1.52;;;;;;;14.80;64.51;98715.00;7392004;19;20365;-72
2022/09/19 11:19:39;;;;;;;9.93;2.15;;;;;;;14.35;65.75;98711.16;7397175;19;20015;-71
2022/09/19 11:22:26;;;;;;;6.47;1.40;;;;;;;15.15;62.29;98707.44;7393813;19;20090;-72
2022/09/19 11:25:23;;;;;;;4.30;1.10;;;;;;;15.51;61.29;98717.53;7392146;19;20010;-71
2022/09/19 11:28:02;;;;;;;5.10;1.58;;;;;;;15.01;63.22;98713.53;7387297;19;20014;-71
2022/09/19 11:30:31;;;;;;;3.78;1.42;;;;;;;15.62;61.63;98719.78;7393338;19;20039;-72
2022/09/19 11:33:22;;;;;;;4.97;1.27;;;;;;;15.70;61.24;98709.06;7389247;19;20014;-72
2022/09/19 11:37:00;;;;;;;4.85;1.58;;;;;;;16.14;58.58;98713.66;7388162;19;20014;-71
2022/09/19 11:39:43;;;;;;;6.85;1.48;;;;;;;15.94;59.72;98715.19;7389730;19;20014;-73
2022/09/19 11:42:25;;;;;;;3.00;1.17;;;;;;;15.36;59.44;98720.97;7390685;19;20370;-71
2022/09/19 11:45:13;;;;;;;5.05;1.13;;;;;;;15.19;59.84;98713.25;7390434;19;20015;-72
2022/09/19 11:48:19;;;;;;;2.50;1.10;;;;;;;15.66;61.33;98714.91;7385414;19;20715;-71
2022/09/19 11:51:06;;;;;;;4.32;1.42;;;;;;;15.59;60.14;98712.97;7393542;19;20018;-72
2022/09/19 11:53:53;;;;;;;5.05;1.20;;;;;;;15.41;61.83;98706.28;7389704;19;20014;-72
2022/09/19 11:56:54;;;;;;;5.90;1.30;;;;;;;15.42;61.72;98711.41;7385471;19;20053;-73
2022/09/19 11:59:35;;;;;;;3.58;1.00;;;;;;;15.78;59.30;98708.97;7388757;19;20082;-71
2022/09/19 12:02:24;;;;;;;8.00;1.95;;;;;;;15.51;60.26;98706.88;7389196;19;20376;-72
2022/09/19 12:05:23;;;;;;;3.38;1.00;;;;;;;15.85;61.14;98708.25;7392686;19;20035;-72
2022/09/19 12:08:26;;;;;;;10.68;1.48;;;;;;;16.34;58.75;98705.91;7387437;19;20508;-71
2022/09/19 12:11:05;;;;;;;6.63;1.50;;;;;;;15.82;61.53;98703.28;7390039;19;20021;-70
2022/09/19 12:13:59;;;;;;;5.43;1.38;;;;;;;15.56;60.82;98696.47;7386590;19;20018;-72
2022/09/19 12:16:47;;;;;;;6.53;1.30;;;;;;;15.37;60.82;98689.78;7387885;19;20022;-71
2022/09/19 12:19:19;;;;;;;5.10;1.40;;;;;;;15.11;61.38;98685.66;7385489;19;20513;-71
2022/09/19 12:22:21;;;;;;;5.05;1.55;;;;;;;15.30;63.21;98681.69;7392934;19;20415;-71
2022/09/19 12:25:06;;;;;;;3.05;0.98;;;;;;;16.20;58.47;98678.19;7391839;19;20006;-71
2022/09/19 12:27:40;;;;;;;3.72;1.48;;;;;;;16.54;59.14;98684.81;7385610;19;20093;-71
2022/09/19 12:30:11;;;;;;;5.35;1.50;;;;;;;16.81;57.28;98677.97;7387129;19;20533;-71
2022/09/19 12:33:11;;;;;;;3.22;0.98;;;;;;;16.01;59.38;98678.75;7388363;19;20095;-72
2022/09/19 12:35:52;;;;;;;6.25;1.15;;;;;;;15.90;61.26;98673.84;7388936;19;20015;-71
2022/09/19 12:38:24;;;;;;;4.20;1.10;;;;;;;16.02;60.88;98672.41;7391607;19;20015;-72